createdAt,value
2018-05-25T00:00:39.504Z,1006.07
2018-05-25T00:01:39.504Z,1006.10
2018-05-25T00:02:39.480Z,1006.09
2018-05-25T00:03:39.483Z,1006.11
2018-05-25T00:04:39.479Z,1006.12
2018-05-25T00:05:39.465Z,1006.07
2018-05-25T00:06:39.512Z,1006.10
2018-05-25T00:07:39.454Z,1006.12
2018-05-25T00:08:39.449Z,1006.12
2018-05-25T00:09:39.432Z,1006.09
2018-05-25T00:10:39.436Z,1006.10
2018-05-25T00:11:39.423Z,1006.09
2018-05-25T00:12:39.539Z,1006.04
2018-05-25T00:13:39.408Z,1006.08
2018-05-25T00:14:39.382Z,1006.05
2018-05-25T00:15:39.402Z,1006.08
2018-05-25T00:16:39.381Z,1006.03
2018-05-25T00:17:39.358Z,1006.02
2018-05-25T00:18:39.359Z,1006.00
2018-05-25T00:19:39.351Z,1006.02
2018-05-25T00:20:39.339Z,1006.01
2018-05-25T00:21:39.345Z,1005.99
2018-05-25T00:22:39.339Z,1006.00
2018-05-25T00:23:39.329Z,1005.99
2018-05-25T00:24:39.349Z,1005.97
2018-05-25T00:25:39.307Z,1005.99
2018-05-25T00:26:39.293Z,1006.00
2018-05-25T00:27:39.301Z,1006.01
2018-05-25T00:28:39.286Z,1006.01
2018-05-25T00:29:39.661Z,1005.99
2018-05-25T00:30:39.263Z,1005.98
2018-05-25T00:31:39.264Z,1005.95
2018-05-25T00:32:39.252Z,1005.95
2018-05-25T00:33:39.248Z,1005.91
2018-05-25T00:34:39.229Z,1005.89
2018-05-25T00:35:39.238Z,1005.86
2018-05-25T00:36:39.216Z,1005.84
2018-05-25T00:37:39.203Z,1005.89
2018-05-25T00:38:39.205Z,1005.85
2018-05-25T00:39:39.187Z,1005.85
2018-05-25T00:40:39.634Z,1005.80
2018-05-25T00:41:39.170Z,1005.83
2018-05-25T00:42:39.171Z,1005.82
2018-05-25T00:43:39.164Z,1005.77
2018-05-25T00:44:39.149Z,1005.78
2018-05-25T00:45:39.151Z,1005.77
2018-05-25T00:46:39.166Z,1005.77
2018-05-25T00:47:39.150Z,1005.77
2018-05-25T00:48:40.101Z,1005.76
2018-05-25T00:49:39.146Z,1005.72
2018-05-25T00:50:39.102Z,1005.72
2018-05-25T00:51:39.180Z,1005.69
2018-05-25T00:52:39.091Z,1005.71
2018-05-25T00:53:39.098Z,1005.71
2018-05-25T00:54:39.071Z,1005.69
2018-05-25T00:55:39.060Z,1005.68
2018-05-25T00:56:39.076Z,1005.71
2018-05-25T00:57:39.224Z,1005.70
2018-05-25T00:58:39.051Z,1005.72
2018-05-25T00:59:39.034Z,1005.70
2018-05-25T01:00:42.147Z,1005.68
2018-05-25T01:01:39.017Z,1005.68
2018-05-25T01:02:39.014Z,1005.67
2018-05-25T01:03:39.015Z,1005.72
2018-05-25T01:04:39.650Z,1005.71
2018-05-25T01:05:38.982Z,1005.76
2018-05-25T01:06:38.975Z,1005.76
2018-05-25T01:07:38.975Z,1005.73
2018-05-25T01:08:38.996Z,1005.72
2018-05-25T01:09:43.636Z,1005.73
2018-05-25T01:10:45.890Z,1005.75
2018-05-25T01:12:14.648Z,1005.75
2018-05-25T01:12:44.386Z,1005.73
2018-05-25T01:13:42.127Z,1005.74
2018-05-25T01:15:10.683Z,1005.75
2018-05-25T01:16:05.287Z,1005.76
2018-05-25T02:49:11.556Z,1005.70
2018-05-25T02:50:11.317Z,1005.74
2018-05-25T02:51:11.111Z,1005.73
2018-05-25T02:52:12.148Z,1005.71
2018-05-25T02:53:11.227Z,1005.71
2018-05-25T02:54:11.115Z,1005.71
2018-05-25T02:55:11.070Z,1005.70
2018-05-25T02:56:11.047Z,1005.72
2018-05-25T02:57:11.474Z,1005.72
2018-05-25T02:58:11.027Z,1005.67
2018-05-25T02:59:11.010Z,1005.66
2018-05-25T03:00:12.514Z,1005.63
2018-05-25T03:01:10.985Z,1005.57
2018-05-25T03:02:11.023Z,1005.58
2018-05-25T03:03:11.051Z,1005.56
2018-05-25T03:04:11.208Z,1005.54
2018-05-25T03:05:10.973Z,1005.51
2018-05-25T03:06:10.961Z,1005.50
2018-05-25T03:07:10.951Z,1005.48
2018-05-25T03:08:11.058Z,1005.47
2018-05-25T03:09:11.224Z,1005.45
2018-05-25T03:10:15.547Z,1005.46
2018-05-25T03:11:18.537Z,1005.48
2018-05-25T03:46:52.547Z,1005.58
2018-05-25T03:47:41.394Z,1005.53
2018-05-25T03:48:42.102Z,1005.54
2018-05-25T03:57:53.135Z,1005.64
2018-05-25T03:58:52.835Z,1005.62
2018-05-25T03:59:53.103Z,1005.60
2018-05-25T04:00:52.232Z,1005.66
2018-05-25T04:02:05.186Z,1005.61
2018-05-25T04:02:52.191Z,1005.59
2018-05-25T04:03:52.200Z,1005.61
2018-05-25T04:04:52.164Z,1005.60
2018-05-25T04:05:52.173Z,1005.64
2018-05-25T04:06:52.290Z,1005.63
2018-05-25T04:07:52.183Z,1005.63
2018-05-25T04:08:52.291Z,1005.62
2018-05-25T04:09:52.168Z,1005.59
2018-05-25T04:10:52.146Z,1005.59
2018-05-25T04:11:52.124Z,1005.60
2018-05-25T04:12:52.119Z,1005.61
2018-05-25T04:13:52.102Z,1005.63
2018-05-25T04:14:52.083Z,1005.60
2018-05-25T04:15:52.076Z,1005.66
2018-05-25T04:16:52.305Z,1005.63
2018-05-25T04:17:52.077Z,1005.63
2018-05-25T04:18:52.276Z,1005.60
2018-05-25T04:19:52.045Z,1005.62
2018-05-25T04:20:52.032Z,1005.63
2018-05-25T04:21:52.036Z,1005.63
2018-05-25T04:22:52.344Z,1005.70
2018-05-25T04:23:52.006Z,1005.73
2018-05-25T04:24:52.002Z,1005.71
2018-05-25T04:25:51.984Z,1005.73
2018-05-25T04:26:51.980Z,1005.75
2018-05-25T04:27:51.974Z,1005.76
2018-05-25T04:28:51.995Z,1005.76
2018-05-25T04:29:51.984Z,1005.76
2018-05-25T04:30:51.944Z,1005.82
2018-05-25T04:31:51.936Z,1005.81
2018-05-25T04:32:51.959Z,1005.81
2018-05-25T04:33:52.825Z,1005.84
2018-05-25T04:34:51.917Z,1005.86
2018-05-25T04:35:51.895Z,1005.86
2018-05-25T04:36:54.344Z,1005.82
2018-05-25T04:37:51.874Z,1005.83
2018-05-25T04:38:51.882Z,1005.83
2018-05-25T04:39:51.862Z,1005.85
2018-05-25T04:40:51.856Z,1005.81
2018-05-25T04:41:52.417Z,1005.83
2018-05-25T04:42:53.828Z,1005.80
2018-05-25T04:43:51.830Z,1005.81
2018-05-25T04:44:51.842Z,1005.81
2018-05-25T04:45:51.813Z,1005.80
2018-05-25T04:46:51.809Z,1005.81
2018-05-25T04:47:54.862Z,1005.80
2018-05-25T04:48:52.025Z,1005.83
2018-05-25T04:49:52.066Z,1005.85
2018-05-25T04:50:51.796Z,1005.83
2018-05-25T04:51:51.759Z,1005.78
2018-05-25T04:52:51.875Z,1005.82
2018-05-25T04:53:51.745Z,1005.83
2018-05-25T04:54:51.753Z,1005.82
2018-05-25T04:55:51.729Z,1005.81
2018-05-25T04:56:51.775Z,1005.87
2018-05-25T04:57:51.712Z,1005.89
2018-05-25T04:58:51.912Z,1005.89
2018-05-25T04:59:51.677Z,1005.90
2018-05-25T05:00:51.703Z,1005.94
2018-05-25T05:01:51.666Z,1005.90
2018-05-25T05:02:51.703Z,1005.92
2018-05-25T05:03:51.651Z,1005.90
2018-05-25T05:04:51.735Z,1005.90
2018-05-25T05:05:51.644Z,1005.92
2018-05-25T05:06:51.634Z,1005.91
2018-05-25T05:07:51.677Z,1005.90
2018-05-25T05:08:51.773Z,1005.88
2018-05-25T05:09:52.147Z,1005.90
2018-05-25T05:10:51.604Z,1005.95
2018-05-25T05:18:41.494Z,1005.95
2018-05-25T05:19:41.062Z,1006.00
2018-05-25T05:20:40.868Z,1005.97
2018-05-25T05:21:40.560Z,1006.00
2018-05-25T05:22:40.547Z,1006.01
2018-05-25T05:23:40.553Z,1006.01
2018-05-25T05:24:40.502Z,1006.01
2018-05-25T05:25:40.483Z,1006.01
2018-05-25T05:26:40.480Z,1006.01
2018-05-25T05:27:40.458Z,1005.96
2018-05-25T05:28:40.996Z,1005.95
2018-05-25T05:29:40.461Z,1005.98
2018-05-25T05:30:40.437Z,1005.98
2018-05-25T05:31:40.450Z,1005.96
2018-05-25T05:32:40.435Z,1005.91
2018-05-25T05:33:41.032Z,1005.93
2018-05-25T05:34:40.439Z,1005.95
2018-05-25T05:35:40.401Z,1005.95
2018-05-25T05:36:40.400Z,1005.98
2018-05-25T05:37:40.387Z,1005.98
2018-05-25T05:38:40.384Z,1006.00
2018-05-25T05:39:40.384Z,1005.99
2018-05-25T05:40:40.407Z,1006.02
2018-05-25T05:41:40.357Z,1006.01
2018-05-25T05:42:40.381Z,1006.04
2018-05-25T05:43:40.335Z,1006.06
2018-05-25T05:44:40.330Z,1006.12
2018-05-25T05:45:40.313Z,1006.09
2018-05-25T05:46:40.330Z,1006.06
2018-05-25T05:47:40.306Z,1006.10
2018-05-25T05:48:40.315Z,1006.10
2018-05-25T05:49:40.311Z,1006.13
2018-05-25T05:50:40.282Z,1006.13
2018-05-25T05:51:40.272Z,1006.15
2018-05-25T05:52:40.268Z,1006.14
2018-05-25T05:53:40.287Z,1006.15
2018-05-25T05:54:40.260Z,1006.15
2018-05-25T05:55:40.249Z,1006.14
2018-05-25T05:56:40.232Z,1006.18
2018-05-25T05:57:40.238Z,1006.18
2018-05-25T05:58:40.234Z,1006.18
2018-05-25T05:59:40.213Z,1006.20
2018-05-25T06:00:40.206Z,1006.20
2018-05-25T06:01:40.192Z,1006.23
2018-05-25T06:02:41.215Z,1006.21
2018-05-25T06:03:40.211Z,1006.22
2018-05-25T06:04:40.189Z,1006.28
2018-05-25T06:05:40.202Z,1006.26
2018-05-25T06:06:40.500Z,1006.26
2018-05-25T06:07:40.136Z,1006.27
2018-05-25T06:08:40.153Z,1006.24
2018-05-25T06:09:40.119Z,1006.31
2018-05-25T06:10:40.113Z,1006.30
2018-05-25T06:11:40.122Z,1006.30
2018-05-25T06:12:40.552Z,1006.32
2018-05-25T06:13:40.100Z,1006.35
2018-05-25T06:14:40.125Z,1006.37
2018-05-25T06:15:40.080Z,1006.36
2018-05-25T06:16:40.074Z,1006.39
2018-05-25T06:17:40.070Z,1006.37
2018-05-25T06:18:41.548Z,1006.39
2018-05-25T06:19:40.346Z,1006.39
2018-05-25T06:20:40.106Z,1006.40
2018-05-25T06:21:40.207Z,1006.41
2018-05-25T06:22:44.697Z,1006.40
2018-05-25T06:23:41.012Z,1006.40
2018-05-25T06:24:40.011Z,1006.38
2018-05-25T06:25:41.018Z,1006.38
2018-05-25T06:26:40.007Z,1006.36
2018-05-25T06:27:41.177Z,1006.35
2018-05-25T06:28:40.874Z,1006.35
2018-05-25T06:29:39.960Z,1006.38
2018-05-25T06:30:40.752Z,1006.36
2018-05-25T06:31:39.980Z,1006.36
2018-05-25T06:32:39.954Z,1006.34
2018-05-25T06:33:40.067Z,1006.36
2018-05-25T06:34:39.988Z,1006.31
2018-05-25T06:35:39.938Z,1006.34
2018-05-25T06:36:39.910Z,1006.36
2018-05-25T06:37:39.916Z,1006.34
2018-05-25T06:38:39.911Z,1006.35
2018-05-25T06:39:39.949Z,1006.33
2018-05-25T06:40:39.897Z,1006.34
2018-05-25T06:41:39.881Z,1006.37
2018-05-25T06:42:41.229Z,1006.39
2018-05-25T06:43:39.873Z,1006.34
2018-05-25T06:44:39.861Z,1006.34
2018-05-25T06:45:41.909Z,1006.39
2018-05-25T06:46:39.861Z,1006.36
2018-05-25T06:47:39.961Z,1006.37
2018-05-25T06:48:39.848Z,1006.38
2018-05-25T06:49:39.824Z,1006.38
2018-05-25T06:50:39.920Z,1006.44
2018-05-25T06:51:39.803Z,1006.40
2018-05-25T06:52:39.886Z,1006.37
2018-05-25T06:53:39.816Z,1006.40
2018-05-25T06:54:39.781Z,1006.40
2018-05-25T06:55:39.787Z,1006.34
2018-05-25T06:56:39.762Z,1006.37
2018-05-25T06:57:41.039Z,1006.36
2018-05-25T06:58:39.737Z,1006.34
2018-05-25T06:59:39.751Z,1006.35
2018-05-25T07:00:39.909Z,1006.33
2018-05-25T07:01:39.741Z,1006.38
2018-05-25T07:02:39.719Z,1006.40
2018-05-25T07:03:40.062Z,1006.40
2018-05-25T07:04:39.699Z,1006.39
2018-05-25T07:05:39.684Z,1006.44
2018-05-25T07:06:39.683Z,1006.45
2018-05-25T07:07:39.670Z,1006.45
2018-05-25T07:08:39.669Z,1006.48
2018-05-25T07:09:40.016Z,1006.53
2018-05-25T07:10:39.648Z,1006.54
2018-05-25T07:11:39.728Z,1006.55
2018-05-25T07:12:39.640Z,1006.56
2018-05-25T07:13:39.620Z,1006.63
2018-05-25T07:14:39.634Z,1006.59
2018-05-25T07:15:39.647Z,1006.59
2018-05-25T07:16:39.604Z,1006.57
2018-05-25T07:17:39.618Z,1006.54
2018-05-25T07:18:39.599Z,1006.57
2018-05-25T07:19:39.573Z,1006.56
2018-05-25T07:20:39.739Z,1006.53
2018-05-25T07:21:39.571Z,1006.55
2018-05-25T07:22:39.575Z,1006.56
2018-05-25T07:23:39.543Z,1006.55
2018-05-25T07:24:39.551Z,1006.55
2018-05-25T07:25:39.534Z,1006.57
2018-05-25T07:26:39.556Z,1006.55
2018-05-25T07:27:39.720Z,1006.52
2018-05-25T07:28:39.556Z,1006.50
2018-05-25T07:29:39.534Z,1006.51
2018-05-25T07:30:39.491Z,1006.50
2018-05-25T07:31:39.524Z,1006.50
2018-05-25T07:32:39.485Z,1006.50
2018-05-25T07:33:39.551Z,1006.49
2018-05-25T07:34:39.618Z,1006.50
2018-05-25T07:35:39.457Z,1006.50
2018-05-25T07:36:39.511Z,1006.49
2018-05-25T07:37:39.486Z,1006.48
2018-05-25T07:38:39.441Z,1006.47
2018-05-25T07:39:39.458Z,1006.47
2018-05-25T07:40:39.564Z,1006.47
2018-05-25T07:41:39.414Z,1006.46
2018-05-25T07:42:39.402Z,1006.44
2018-05-25T07:43:39.417Z,1006.44
2018-05-25T07:44:39.403Z,1006.41
2018-05-25T07:45:39.401Z,1006.44
2018-05-25T07:46:39.403Z,1006.40
2018-05-25T07:47:39.371Z,1006.38
2018-05-25T07:48:39.365Z,1006.42
2018-05-25T07:49:39.425Z,1006.41
2018-05-25T07:50:39.361Z,1006.40
2018-05-25T07:51:39.352Z,1006.40
2018-05-25T07:52:39.376Z,1006.39
2018-05-25T07:53:39.341Z,1006.39
2018-05-25T07:54:39.332Z,1006.40
2018-05-25T07:55:39.322Z,1006.44
2018-05-25T07:56:39.304Z,1006.41
2018-05-25T07:57:39.341Z,1006.48
2018-05-25T07:58:39.309Z,1006.46
2018-05-25T07:59:39.305Z,1006.46
2018-05-25T08:00:39.421Z,1006.47
2018-05-25T08:01:39.278Z,1006.44
2018-05-25T08:02:39.268Z,1006.47
2018-05-25T08:03:39.261Z,1006.50
2018-05-25T08:04:39.260Z,1006.45
2018-05-25T08:05:39.279Z,1006.47
2018-05-25T08:06:39.260Z,1006.49
2018-05-25T08:07:39.245Z,1006.47
2018-05-25T08:08:39.234Z,1006.51
2018-05-25T08:09:39.348Z,1006.50
2018-05-25T08:10:39.216Z,1006.50
2018-05-25T08:11:39.208Z,1006.51
2018-05-25T08:12:39.208Z,1006.54
2018-05-25T08:13:39.197Z,1006.57
2018-05-25T08:14:39.193Z,1006.53
2018-05-25T08:15:39.213Z,1006.50
2018-05-25T08:16:39.180Z,1006.54
2018-05-25T08:17:39.175Z,1006.49
2018-05-25T08:18:39.172Z,1006.53
2018-05-25T08:19:39.163Z,1006.50
2018-05-25T08:20:39.151Z,1006.52
2018-05-25T08:21:39.586Z,1006.50
2018-05-25T08:22:39.147Z,1006.53
2018-05-25T08:23:39.127Z,1006.48
2018-05-25T08:24:39.335Z,1006.47
2018-05-25T08:25:39.125Z,1006.54
2018-05-25T08:26:39.111Z,1006.50
2018-05-25T08:27:39.109Z,1006.51
2018-05-25T08:28:39.105Z,1006.56
2018-05-25T08:29:39.090Z,1006.55
2018-05-25T08:30:39.130Z,1006.50
2018-05-25T08:31:39.118Z,1006.57
2018-05-25T08:32:39.076Z,1006.58
2018-05-25T08:33:39.066Z,1006.60
2018-05-25T08:34:39.068Z,1006.61
2018-05-25T08:35:39.149Z,1006.60
2018-05-25T08:36:39.059Z,1006.58
2018-05-25T08:37:39.076Z,1006.60
2018-05-25T08:38:39.078Z,1006.58
2018-05-25T08:39:39.044Z,1006.60
2018-05-25T08:40:39.225Z,1006.61
2018-05-25T08:41:39.210Z,1006.59
2018-05-25T08:42:39.006Z,1006.63
2018-05-25T08:43:39.026Z,1006.61
2018-05-25T08:44:39.013Z,1006.63
2018-05-25T08:45:39.001Z,1006.64
2018-05-25T08:46:38.997Z,1006.67
2018-05-25T08:47:39.024Z,1006.65
2018-05-25T08:48:38.986Z,1006.67
2018-05-25T08:49:38.992Z,1006.66
2018-05-25T08:50:38.995Z,1006.69
2018-05-25T08:51:38.973Z,1006.70
2018-05-25T08:52:39.140Z,1006.67
2018-05-25T08:53:39.041Z,1006.65
2018-05-25T08:54:38.940Z,1006.66
2018-05-25T08:55:38.940Z,1006.59
2018-05-25T08:56:38.943Z,1006.60
2018-05-25T08:57:38.931Z,1006.58
2018-05-25T08:58:38.935Z,1006.64
2018-05-25T08:59:38.909Z,1006.61
2018-05-25T09:00:38.910Z,1006.65
2018-05-25T09:01:38.930Z,1006.66
2018-05-25T09:02:38.897Z,1006.67
2018-05-25T09:03:39.231Z,1006.65
2018-05-25T09:04:38.898Z,1006.66
2018-05-25T09:05:38.905Z,1006.68
2018-05-25T09:06:38.936Z,1006.69
2018-05-25T09:07:38.878Z,1006.69
2018-05-25T09:08:38.983Z,1006.68
2018-05-25T09:09:39.172Z,1006.73
2018-05-25T09:10:38.864Z,1006.73
2018-05-25T09:11:39.135Z,1006.80
2018-05-25T09:12:38.848Z,1006.86
2018-05-25T09:13:38.849Z,1006.82
2018-05-25T09:14:38.847Z,1006.84
2018-05-25T09:15:38.862Z,1006.80
2018-05-25T09:16:38.851Z,1006.82
2018-05-25T09:17:40.185Z,1006.80
2018-05-25T09:18:39.583Z,1006.82
2018-05-25T09:19:39.546Z,1006.78
2018-05-25T09:20:39.602Z,1006.78
2018-05-25T09:21:38.840Z,1006.76
2018-05-25T09:22:38.820Z,1006.70
2018-05-25T09:23:38.832Z,1006.69
2018-05-25T09:24:38.816Z,1006.71
2018-05-25T09:25:38.809Z,1006.71
2018-05-25T09:26:38.822Z,1006.65
2018-05-25T09:27:38.818Z,1006.68
2018-05-25T09:28:39.115Z,1006.70
2018-05-25T09:29:38.813Z,1006.71
2018-05-25T09:30:41.500Z,1006.73
2018-05-25T09:31:38.814Z,1006.78
2018-05-25T09:32:38.989Z,1006.76
2018-05-25T09:33:38.833Z,1006.73
2018-05-25T09:34:38.808Z,1006.73
2018-05-25T09:35:38.801Z,1006.76
2018-05-25T09:36:38.799Z,1006.76
2018-05-25T09:37:38.821Z,1006.72
2018-05-25T09:38:38.823Z,1006.71
2018-05-25T09:39:39.039Z,1006.74
2018-05-25T09:40:38.803Z,1006.72
2018-05-25T09:41:38.788Z,1006.72
2018-05-25T09:42:38.788Z,1006.75
2018-05-25T09:43:38.781Z,1006.77
2018-05-25T09:44:38.785Z,1006.78
2018-05-25T09:45:38.800Z,1006.78
2018-05-25T09:46:38.785Z,1006.76
2018-05-25T09:47:38.784Z,1006.77
2018-05-25T09:48:38.799Z,1006.80
2018-05-25T09:49:38.786Z,1006.81
2018-05-25T09:50:38.804Z,1006.80
2018-05-25T09:51:38.810Z,1006.81
2018-05-25T09:52:38.787Z,1006.80
2018-05-25T09:53:38.776Z,1006.77
2018-05-25T09:54:38.775Z,1006.80
2018-05-25T09:55:38.783Z,1006.78
2018-05-25T09:56:38.799Z,1006.77
2018-05-25T09:57:38.765Z,1006.81
2018-05-25T09:58:38.774Z,1006.80
2018-05-25T09:59:38.771Z,1006.77
2018-05-25T10:00:38.761Z,1006.79
2018-05-25T10:01:38.807Z,1006.74
2018-05-25T10:02:38.765Z,1006.76
2018-05-25T10:03:38.760Z,1006.77
2018-05-25T10:04:38.751Z,1006.73
2018-05-25T10:05:38.756Z,1006.75
2018-05-25T10:06:38.748Z,1006.76
2018-05-25T10:07:38.882Z,1006.79
2018-05-25T10:08:38.800Z,1006.78
2018-05-25T10:09:38.737Z,1006.75
2018-05-25T10:10:38.743Z,1006.77
2018-05-25T10:11:38.725Z,1006.79
2018-05-25T10:12:38.729Z,1006.79
2018-05-25T10:13:38.868Z,1006.77
2018-05-25T10:14:38.716Z,1006.83
2018-05-25T10:15:38.733Z,1006.82
2018-05-25T10:16:38.714Z,1006.87
2018-05-25T10:17:38.727Z,1006.80
2018-05-25T10:18:38.716Z,1006.88
2018-05-25T10:19:38.733Z,1006.93
2018-05-25T10:20:38.703Z,1006.96
2018-05-25T10:21:38.727Z,1006.98
2018-05-25T10:22:38.710Z,1006.95
2018-05-25T10:23:38.706Z,1006.95
2018-05-25T10:24:38.726Z,1006.91
2018-05-25T10:25:38.782Z,1006.98
2018-05-25T10:26:38.706Z,1006.94
2018-05-25T10:27:38.701Z,1006.91
2018-05-25T10:28:38.721Z,1007.35
2018-05-25T10:29:38.740Z,1006.93
2018-05-25T10:30:38.730Z,1006.88
2018-05-25T10:31:38.709Z,1006.88
2018-05-25T10:32:38.707Z,1006.87
2018-05-25T10:33:38.707Z,1006.95
2018-05-25T10:34:38.745Z,1006.89
2018-05-25T10:35:38.713Z,1007.23
2018-05-25T10:36:38.710Z,1007.01
2018-05-25T10:37:38.741Z,1007.21
2018-05-25T10:38:59.709Z,1006.97
2018-05-25T10:39:38.710Z,1006.85
2018-05-25T10:40:38.703Z,1006.85
2018-05-25T10:41:38.723Z,1006.85
2018-05-25T10:42:38.727Z,1006.90
2018-05-25T10:43:39.640Z,1006.82
2018-05-25T10:44:38.725Z,1006.85
2018-05-25T10:45:38.741Z,1006.91
2018-05-25T10:46:38.725Z,1006.88
2018-05-25T10:47:38.702Z,1006.84
2018-05-25T10:48:38.774Z,1006.88
2018-05-25T10:49:39.696Z,1006.90
2018-05-25T10:50:38.897Z,1007.06
2018-05-25T10:51:38.710Z,1006.97
2018-05-25T10:52:38.780Z,1007.06
2018-05-25T10:53:38.745Z,1007.04
2018-05-25T10:54:39.640Z,1007.37
2018-05-25T10:55:44.138Z,1006.94
2018-05-25T10:56:38.710Z,1006.83
2018-05-25T10:57:38.715Z,1006.80
2018-05-25T10:58:39.170Z,1006.82
2018-05-25T10:59:38.837Z,1006.80
2018-05-25T11:00:38.717Z,1006.83
2018-05-25T11:01:38.705Z,1006.78
2018-05-25T11:02:38.707Z,1006.80
2018-05-25T11:03:38.743Z,1006.84
2018-05-25T11:04:38.718Z,1006.94
2018-05-25T11:05:38.731Z,1006.80
2018-05-25T11:06:39.657Z,1006.74
2018-05-25T11:07:38.708Z,1006.77
2018-05-25T11:08:38.854Z,1006.78
2018-05-25T11:09:38.705Z,1006.74
2018-05-25T11:10:38.705Z,1006.73
2018-05-25T11:11:38.704Z,1006.72
2018-05-25T11:12:38.702Z,1006.67
2018-05-25T11:13:38.688Z,1006.69
2018-05-25T11:14:38.703Z,1006.68
2018-05-25T11:15:38.699Z,1006.67
2018-05-25T11:16:38.688Z,1006.62
2018-05-25T11:17:38.714Z,1006.67
2018-05-25T11:18:38.696Z,1006.62
2018-05-25T11:19:38.787Z,1006.62
2018-05-25T11:20:38.700Z,1006.63
2018-05-25T11:21:38.684Z,1006.64
2018-05-25T11:22:38.678Z,1006.65
2018-05-25T11:23:38.685Z,1006.98
2018-05-25T11:24:38.703Z,1006.84
2018-05-25T11:25:38.705Z,1006.67
2018-05-25T11:26:38.686Z,1006.86
2018-05-25T11:27:38.672Z,1006.71
2018-05-25T11:28:38.668Z,1006.75
2018-05-25T11:29:38.666Z,1006.83
2018-05-25T11:30:38.726Z,1006.65
2018-05-25T11:31:38.716Z,1007.00
2018-05-25T11:32:39.884Z,1007.01
2018-05-25T11:33:38.660Z,1006.56
2018-05-25T11:34:38.660Z,1006.59
2018-05-25T11:35:38.666Z,1006.59
2018-05-25T11:36:39.188Z,1006.59
2018-05-25T11:37:38.682Z,1006.58
2018-05-25T11:38:38.667Z,1006.63
2018-05-25T11:39:38.666Z,1006.69
2018-05-25T11:40:38.658Z,1006.59
2018-05-25T11:41:38.703Z,1006.59
2018-05-25T11:42:38.689Z,1006.86
2018-05-25T11:43:39.169Z,1007.28
2018-05-25T11:44:38.665Z,1006.93
2018-05-25T11:45:38.679Z,1006.94
2018-05-25T11:46:38.713Z,1006.84
2018-05-25T11:47:38.670Z,1006.80
2018-05-25T11:48:38.649Z,1006.67
2018-05-25T11:49:43.322Z,1006.53
2018-05-25T11:50:38.675Z,1006.58
2018-05-25T11:51:40.189Z,1006.52
2018-05-25T11:52:38.785Z,1006.59
2018-05-25T11:53:38.641Z,1006.53
2018-05-25T11:54:38.675Z,1006.57
2018-05-25T11:55:38.704Z,1006.55
2018-05-25T11:56:38.690Z,1006.53
2018-05-25T11:57:38.677Z,1006.51
2018-05-25T11:58:38.734Z,1006.54
2018-05-25T11:59:38.698Z,1006.50
2018-05-25T12:00:38.641Z,1006.47
2018-05-25T12:01:38.653Z,1006.48
2018-05-25T12:02:38.686Z,1006.46
2018-05-25T12:03:38.640Z,1006.55
2018-05-25T12:04:38.732Z,1006.44
2018-05-25T12:05:38.810Z,1006.43
2018-05-25T12:06:38.687Z,1006.45
2018-05-25T12:07:38.698Z,1006.48
2018-05-25T12:08:38.632Z,1006.48
2018-05-25T12:09:38.708Z,1006.51
2018-05-25T12:10:38.788Z,1006.44
2018-05-25T12:11:38.617Z,1006.44
2018-05-25T12:12:38.629Z,1006.46
2018-05-25T12:13:38.640Z,1006.42
2018-05-25T12:14:38.655Z,1006.35
2018-05-25T12:15:38.621Z,1006.39
2018-05-25T12:16:38.619Z,1006.45
2018-05-25T12:17:38.624Z,1006.48
2018-05-25T12:18:38.617Z,1006.48
2018-05-25T12:19:38.612Z,1006.48
2018-05-25T12:20:38.738Z,1006.47
2018-05-25T12:21:38.614Z,1006.43
2018-05-25T12:22:38.618Z,1006.42
2018-05-25T12:23:38.612Z,1006.46
2018-05-25T12:24:38.620Z,1006.43
2018-05-25T12:25:38.645Z,1006.46
2018-05-25T12:26:38.633Z,1006.40
2018-05-25T12:27:38.609Z,1006.42
2018-05-25T12:28:38.604Z,1006.46
2018-05-25T12:29:38.596Z,1006.45
2018-05-25T12:30:38.590Z,1006.44
2018-05-25T12:31:38.639Z,1006.42
2018-05-25T12:32:38.610Z,1006.42
2018-05-25T12:33:38.643Z,1006.43
2018-05-25T12:34:38.587Z,1006.40
2018-05-25T12:35:38.590Z,1006.41
2018-05-25T12:36:38.592Z,1006.43
2018-05-25T12:37:38.723Z,1006.44
2018-05-25T12:38:38.566Z,1006.41
2018-05-25T12:39:38.578Z,1006.43
2018-05-25T12:40:38.590Z,1006.41
2018-05-25T12:41:38.573Z,1006.42
2018-05-25T12:42:38.556Z,1006.40
2018-05-25T12:43:38.576Z,1006.42
2018-05-25T12:44:38.567Z,1006.42
2018-05-25T12:45:38.665Z,1006.38
2018-05-25T12:46:38.887Z,1006.38
2018-05-25T12:47:38.759Z,1006.42
2018-05-25T12:48:38.554Z,1006.44
2018-05-25T12:49:38.552Z,1006.46
2018-05-25T12:50:38.551Z,1006.44
2018-05-25T12:51:38.580Z,1006.42
2018-05-25T12:52:38.558Z,1006.42
2018-05-25T12:53:38.525Z,1006.44
2018-05-25T12:54:38.561Z,1006.40
2018-05-25T12:55:38.540Z,1006.35
2018-05-25T12:56:38.539Z,1006.41
2018-05-25T12:57:38.531Z,1006.48
2018-05-25T12:58:38.516Z,1006.50
2018-05-25T12:59:38.543Z,1006.47
2018-05-25T13:00:38.548Z,1006.49
2018-05-25T13:01:38.522Z,1006.52
2018-05-25T13:02:38.553Z,1006.51
2018-05-25T13:03:39.281Z,1006.52
2018-05-25T13:04:38.549Z,1006.57
2018-05-25T13:05:38.514Z,1006.58
2018-05-25T13:06:38.492Z,1006.56
2018-05-25T13:07:38.505Z,1006.56
2018-05-25T13:08:38.486Z,1006.54
2018-05-25T13:09:38.496Z,1006.54
2018-05-25T13:10:38.498Z,1006.54
2018-05-25T13:11:38.489Z,1006.59
2018-05-25T13:12:38.538Z,1006.50
2018-05-25T13:13:38.475Z,1006.51
2018-05-25T13:14:38.694Z,1006.51
2018-05-25T13:15:38.451Z,1006.49
2018-05-25T13:16:38.465Z,1006.53
2018-05-25T13:17:38.456Z,1006.56
2018-05-25T13:18:38.590Z,1006.52
2018-05-25T13:19:38.460Z,1006.54
2018-05-25T13:20:38.441Z,1006.61
2018-05-25T13:21:38.455Z,1006.60
2018-05-25T13:22:38.450Z,1006.61
2018-05-25T13:23:38.453Z,1006.53
2018-05-25T13:24:38.445Z,1006.56
2018-05-25T13:25:38.428Z,1006.62
2018-05-25T13:26:38.436Z,1006.59
2018-05-25T13:27:38.433Z,1006.59
2018-05-25T13:28:38.433Z,1006.53
2018-05-25T13:29:38.487Z,1006.55
2018-05-25T13:30:38.432Z,1006.54
2018-05-25T13:31:38.415Z,1006.59
2018-05-25T13:32:38.423Z,1006.57
2018-05-25T13:33:38.413Z,1006.60
2018-05-25T13:34:38.423Z,1006.59
2018-05-25T13:35:38.442Z,1006.61
2018-05-25T13:36:38.414Z,1006.61
2018-05-25T13:37:38.413Z,1006.63
2018-05-25T13:38:38.476Z,1006.64
2018-05-25T13:39:38.405Z,1006.65
2018-05-25T13:40:38.401Z,1006.65
2018-05-25T13:41:38.401Z,1006.64
2018-05-25T13:42:38.396Z,1006.62
2018-05-25T13:43:38.394Z,1006.62
2018-05-25T13:44:38.409Z,1006.65
2018-05-25T13:45:38.387Z,1006.62
2018-05-25T13:46:41.266Z,1006.64
2018-05-25T13:47:38.458Z,1006.65
2018-05-25T13:48:38.389Z,1006.63
2018-05-25T13:49:38.385Z,1006.63
2018-05-25T13:50:38.380Z,1006.64
2018-05-25T13:51:38.831Z,1006.57
2018-05-25T13:52:39.278Z,1006.61
2018-05-25T13:53:38.382Z,1006.60
2018-05-25T13:54:38.365Z,1006.57
2018-05-25T13:55:39.257Z,1006.54
2018-05-25T13:56:38.368Z,1006.56
2018-05-25T13:57:38.919Z,1006.52
2018-05-25T13:58:38.359Z,1006.52
2018-05-25T13:59:39.324Z,1006.53
2018-05-25T14:00:38.384Z,1006.53
2018-05-25T14:01:38.350Z,1006.53
2018-05-25T14:02:38.342Z,1006.54
2018-05-25T14:03:38.407Z,1006.51
2018-05-25T14:04:38.357Z,1006.49
2018-05-25T14:05:38.347Z,1006.51
2018-05-25T14:06:38.331Z,1006.48
2018-05-25T14:07:38.340Z,1006.47
2018-05-25T14:08:38.320Z,1006.47
2018-05-25T14:09:38.328Z,1006.48
2018-05-25T14:10:38.331Z,1006.45
2018-05-25T14:11:38.319Z,1006.45
2018-05-25T14:12:38.323Z,1006.46
2018-05-25T14:13:38.323Z,1006.49
2018-05-25T14:14:38.357Z,1006.47
2018-05-25T14:15:39.282Z,1006.47
2018-05-25T14:16:38.314Z,1006.46
2018-05-25T14:17:38.318Z,1006.50
2018-05-25T14:18:38.314Z,1006.48
2018-05-25T14:19:40.269Z,1006.48
2018-05-25T14:20:38.297Z,1006.47
2018-05-25T14:21:38.308Z,1006.47
2018-05-25T14:22:39.256Z,1006.48
2018-05-25T14:23:38.285Z,1006.48
2018-05-25T14:24:38.287Z,1006.50
2018-05-25T14:25:38.275Z,1006.49
2018-05-25T14:28:15.002Z,1006.53
2018-05-25T14:29:15.119Z,1006.49